createdAt,value
2022-11-14T00:00:48.203Z,106.45
2022-11-14T00:03:33.788Z,221.43
2022-11-14T00:06:19.788Z,301.77
2022-11-14T00:09:05.741Z,169.07
2022-11-14T00:11:51.480Z,206.77
2022-11-14T00:14:37.396Z,215.32
2022-11-14T00:17:23.240Z,87.72
2022-11-14T00:20:10.292Z,301.48
2022-11-14T00:22:56.848Z,139.50
2022-11-14T00:25:43.919Z,119.80
2022-11-14T00:28:29.964Z,83.40
2022-11-14T00:31:16.439Z,279.13
2022-11-14T00:34:02.050Z,132.05
2022-11-14T00:36:47.652Z,260.42
2022-11-14T00:39:33.464Z,295.00
2022-11-14T00:42:19.093Z,212.48
2022-11-14T00:45:05.275Z,305.12
2022-11-14T00:50:38.012Z,211.93
2022-11-14T00:53:23.781Z,117.57
2022-11-14T00:56:09.479Z,156.50
2022-11-14T00:58:55.319Z,88.30
2022-11-14T01:01:41.122Z,62.72
2022-11-14T01:04:26.664Z,109.85
2022-11-14T01:07:12.411Z,183.95
2022-11-14T01:09:58.013Z,193.13
2022-11-14T01:12:43.727Z,58.72
2022-11-14T01:15:29.483Z,74.18
2022-11-14T01:18:17.182Z,121.82
2022-11-14T01:21:07.046Z,108.82
2022-11-14T01:23:52.839Z,132.18
2022-11-14T01:26:38.535Z,75.43
2022-11-14T01:29:24.291Z,78.00
2022-11-14T01:32:10.424Z,82.22
2022-11-14T01:34:55.980Z,120.78
2022-11-14T01:37:41.732Z,118.80
2022-11-14T01:40:27.565Z,126.15
2022-11-14T01:43:19.601Z,84.22
2022-11-14T01:46:15.525Z,163.20
2022-11-14T01:49:21.660Z,245.48
2022-11-14T01:52:13.845Z,160.68
2022-11-14T01:55:01.338Z,169.95
2022-11-14T01:57:47.193Z,115.88
2022-11-14T02:00:33.060Z,77.60
2022-11-14T02:03:18.824Z,132.07
2022-11-14T02:06:04.696Z,221.73
2022-11-14T02:08:51.191Z,61.20
2022-11-14T02:14:24.160Z,114.47
2022-11-14T02:17:39.950Z,55.90
2022-11-14T02:20:20.004Z,167.32
2022-11-14T02:23:05.959Z,172.68
2022-11-14T02:25:51.612Z,241.18
2022-11-14T02:28:37.288Z,43.20
2022-11-14T02:31:22.851Z,181.90
2022-11-14T02:34:08.710Z,58.70
2022-11-14T02:36:54.418Z,243.85
2022-11-14T02:39:40.804Z,209.23
2022-11-14T02:42:26.502Z,137.00
2022-11-14T02:45:12.215Z,126.47
2022-11-14T02:47:57.956Z,54.00
2022-11-14T02:50:43.889Z,187.18
2022-11-14T02:53:29.683Z,301.67
2022-11-14T02:56:15.380Z,126.97
2022-11-14T02:59:01.037Z,70.15
2022-11-14T03:01:46.863Z,135.05
2022-11-14T03:04:33.002Z,165.43
2022-11-14T03:07:18.800Z,247.65
2022-11-14T03:10:05.544Z,280.80
2022-11-14T03:12:55.072Z,265.37
2022-11-14T03:15:40.934Z,65.87
2022-11-14T03:18:26.734Z,54.95
2022-11-14T03:21:15.100Z,154.18
2022-11-14T03:24:01.084Z,252.00
2022-11-14T03:26:46.903Z,165.65
2022-11-14T03:29:32.640Z,392.13
2022-11-14T03:32:18.331Z,174.23
2022-11-14T03:35:04.405Z,265.48
2022-11-14T03:37:52.766Z,283.75
2022-11-14T03:40:41.676Z,187.48
2022-11-14T03:43:32.326Z,184.77
2022-11-14T03:46:18.400Z,218.52
2022-11-14T03:49:04.383Z,107.37
2022-11-14T03:51:50.746Z,297.08
2022-11-14T03:54:36.468Z,77.60
2022-11-14T03:57:22.103Z,185.00
2022-11-14T04:00:08.487Z,215.75
2022-11-14T04:05:45.999Z,133.97
2022-11-14T04:08:32.381Z,150.90
2022-11-14T04:11:18.993Z,148.02
2022-11-14T04:16:50.619Z,151.55
2022-11-14T04:19:36.497Z,57.15
2022-11-14T04:22:22.005Z,126.97
2022-11-14T04:25:08.683Z,123.60
2022-11-14T04:27:54.763Z,180.52
2022-11-14T04:30:40.402Z,144.40
2022-11-14T04:33:26.508Z,156.63
2022-11-14T04:36:12.352Z,145.20
2022-11-14T04:38:58.025Z,88.25
2022-11-14T04:41:43.772Z,342.60
2022-11-14T04:44:29.452Z,263.10
2022-11-14T04:47:15.200Z,227.70
2022-11-14T04:50:00.821Z,52.78
2022-11-14T04:52:46.400Z,68.65
2022-11-14T04:55:32.245Z,78.68
2022-11-14T04:58:17.792Z,88.60
2022-11-14T05:01:10.175Z,166.52
2022-11-14T05:03:56.181Z,58.78
2022-11-14T05:06:41.986Z,108.68
2022-11-14T05:09:29.112Z,154.38
2022-11-14T05:12:14.971Z,47.75
2022-11-14T05:15:00.630Z,129.05
2022-11-14T05:17:46.240Z,39.58
2022-11-14T05:20:32.143Z,77.90
2022-11-14T05:23:23.450Z,76.37
2022-11-14T05:26:10.883Z,125.32
2022-11-14T05:28:56.826Z,128.40
2022-11-14T05:31:42.578Z,45.67
2022-11-14T05:34:28.364Z,65.72
2022-11-14T05:37:14.196Z,130.93
2022-11-14T05:39:59.872Z,86.10
2022-11-14T05:42:45.573Z,88.43
2022-11-14T05:45:31.467Z,100.50
2022-11-14T05:48:17.062Z,43.75
2022-11-14T05:51:03.874Z,48.72
2022-11-14T05:53:49.913Z,96.82
2022-11-14T05:56:35.808Z,42.75
2022-11-14T05:59:21.905Z,196.27
2022-11-14T06:02:07.603Z,60.97
2022-11-14T06:04:54.005Z,28.48
2022-11-14T06:07:40.117Z,100.93
2022-11-14T06:10:26.112Z,98.62
2022-11-14T06:13:11.852Z,74.65
2022-11-14T06:16:04.572Z,59.33
2022-11-14T06:18:52.791Z,62.57
2022-11-14T06:21:38.851Z,83.95
2022-11-14T06:24:24.586Z,38.00
2022-11-14T06:27:10.298Z,132.70
2022-11-14T06:29:55.841Z,83.07
2022-11-14T06:32:41.637Z,130.02
2022-11-14T06:35:27.562Z,81.50
2022-11-14T06:38:13.446Z,44.95
2022-11-14T06:41:06.245Z,61.33
2022-11-14T06:43:55.449Z,41.97
2022-11-14T06:46:41.085Z,61.97
2022-11-14T06:49:27.863Z,47.00
2022-11-14T06:52:13.761Z,40.83
2022-11-14T06:54:59.435Z,58.17
2022-11-14T06:57:45.284Z,38.38
2022-11-14T07:00:31.336Z,49.90
2022-11-14T07:03:17.536Z,51.25
2022-11-14T07:06:03.768Z,55.15
2022-11-14T07:11:35.074Z,52.65
2022-11-14T07:14:20.908Z,54.20
2022-11-14T07:17:06.899Z,33.65
2022-11-14T07:19:52.856Z,39.95
2022-11-14T07:22:38.840Z,69.93
2022-11-14T07:25:24.645Z,59.70
2022-11-14T07:28:10.545Z,47.05
2022-11-14T07:30:56.273Z,72.32
2022-11-14T07:33:41.997Z,78.85
2022-11-14T07:36:28.477Z,86.35
2022-11-14T07:39:14.490Z,93.90
2022-11-14T07:42:00.339Z,42.78
2022-11-14T07:44:46.142Z,79.05
2022-11-14T07:47:31.843Z,67.25
2022-11-14T07:50:20.572Z,44.38
2022-11-14T07:53:08.762Z,50.20
2022-11-14T07:55:57.102Z,43.63
2022-11-14T07:58:46.525Z,42.38
2022-11-14T08:01:32.892Z,39.30
2022-11-14T08:04:19.071Z,43.97
2022-11-14T08:07:04.821Z,39.83
2022-11-14T08:12:38.565Z,41.70
2022-11-14T08:15:24.554Z,43.30
2022-11-14T08:18:10.641Z,49.75
2022-11-14T08:20:57.678Z,44.67
2022-11-14T08:23:45.318Z,38.83
2022-11-14T08:26:34.231Z,37.90
2022-11-14T08:29:21.077Z,32.85
2022-11-14T08:34:52.559Z,29.23
2022-11-14T08:37:38.315Z,30.40
2022-11-14T08:40:24.010Z,24.63
2022-11-14T08:43:11.694Z,34.42
2022-11-14T08:46:02.236Z,30.92
2022-11-14T08:48:48.494Z,30.73
2022-11-14T08:51:36.443Z,28.27
2022-11-14T08:54:22.458Z,36.75
2022-11-14T08:57:08.336Z,34.75
2022-11-14T08:59:55.435Z,32.35
2022-11-14T09:02:41.476Z,27.08
2022-11-14T09:05:27.235Z,33.92
2022-11-14T09:08:13.062Z,34.25
2022-11-14T09:11:05.186Z,28.45
2022-11-14T09:13:51.959Z,32.67
2022-11-14T09:16:37.696Z,29.10
2022-11-14T09:19:23.508Z,31.27
2022-11-14T09:22:09.206Z,29.42
2022-11-14T09:24:55.113Z,30.50
2022-11-14T09:27:40.891Z,27.37
2022-11-14T09:30:26.484Z,32.88
2022-11-14T09:33:12.370Z,25.37
2022-11-14T09:38:47.818Z,27.02
2022-11-14T09:41:49.250Z,29.80
2022-11-14T09:44:47.330Z,29.95
2022-11-14T09:47:44.448Z,27.90
2022-11-14T09:50:34.797Z,31.17
2022-11-14T09:53:26.339Z,43.65
2022-11-14T09:56:13.530Z,29.73
2022-11-14T09:58:59.350Z,33.08
2022-11-14T10:01:59.991Z,33.45
2022-11-14T10:05:00.027Z,30.92
2022-11-14T10:07:54.105Z,26.55
2022-11-14T10:10:49.279Z,32.85
2022-11-14T10:13:47.650Z,32.42
2022-11-14T10:16:54.654Z,31.73
2022-11-14T10:19:43.033Z,31.10
2022-11-14T10:23:09.167Z,32.00
2022-11-14T10:26:07.775Z,31.45
2022-11-14T10:29:08.463Z,29.45
2022-11-14T10:32:21.976Z,30.88
2022-11-14T10:35:28.718Z,33.45
2022-11-14T10:38:26.435Z,33.88
2022-11-14T10:41:28.477Z,33.20
2022-11-14T10:44:20.924Z,29.05
2022-11-14T10:47:08.943Z,30.75
2022-11-14T10:49:55.476Z,35.53
2022-11-14T10:52:41.831Z,33.53
2022-11-14T10:55:57.474Z,33.67
2022-11-14T10:58:47.319Z,35.42
2022-11-14T11:01:40.630Z,28.58
2022-11-14T11:04:30.543Z,29.63
2022-11-14T11:07:40.472Z,35.53
2022-11-14T11:10:45.312Z,30.88
2022-11-14T11:13:32.226Z,31.25
2022-11-14T11:16:20.357Z,30.95
2022-11-14T11:19:35.382Z,32.30
2022-11-14T11:22:24.068Z,28.02
2022-11-14T11:25:27.084Z,30.12
2022-11-14T11:28:17.890Z,30.45
2022-11-14T11:31:07.966Z,31.05
2022-11-14T11:33:53.765Z,28.65
2022-11-14T11:36:45.576Z,27.17
2022-11-14T11:39:33.423Z,29.08
2022-11-14T11:43:16.768Z,35.78
2022-11-14T11:45:39.398Z,29.55
2022-11-14T11:48:30.541Z,33.85
2022-11-14T11:51:17.844Z,34.83
2022-11-14T11:54:12.843Z,33.60
2022-11-14T11:57:00.997Z,29.07
2022-11-14T11:59:48.827Z,31.35
2022-11-14T12:02:34.921Z,32.55
2022-11-14T12:05:42.512Z,34.05
2022-11-14T12:09:03.955Z,34.70
2022-11-14T12:11:55.090Z,30.77
2022-11-14T12:14:59.928Z,32.50
2022-11-14T12:17:54.864Z,32.67
2022-11-14T12:21:09.979Z,38.58
2022-11-14T12:24:05.505Z,32.83
2022-11-14T12:26:54.365Z,29.20
2022-11-14T12:29:51.394Z,28.77
2022-11-14T12:32:39.968Z,32.33
2022-11-14T12:35:30.639Z,31.33
2022-11-14T12:38:20.615Z,26.65
2022-11-14T12:41:07.970Z,27.33
2022-11-14T12:43:53.943Z,28.15
2022-11-14T12:47:05.870Z,25.23
2022-11-14T12:49:52.676Z,32.08
2022-11-14T12:52:41.054Z,26.60
2022-11-14T12:55:26.788Z,23.92
2022-11-14T12:58:42.580Z,26.42
2022-11-14T13:01:28.736Z,30.52
2022-11-14T13:04:35.698Z,25.58
2022-11-14T13:07:53.972Z,22.02
2022-11-14T13:10:40.409Z,23.83
2022-11-14T13:16:49.654Z,20.42
2022-11-14T13:19:54.112Z,16.25
2022-11-14T13:22:41.096Z,19.37
2022-11-14T13:25:27.273Z,20.17
2022-11-14T13:28:37.974Z,24.55
2022-11-14T13:31:25.477Z,19.95
2022-11-14T13:34:30.404Z,19.10
2022-11-14T13:37:40.438Z,17.98
2022-11-14T13:40:38.235Z,20.17
2022-11-14T13:43:33.266Z,23.73
2022-11-14T13:46:25.484Z,21.15
2022-11-14T13:49:29.666Z,23.52
2022-11-14T13:52:15.634Z,21.37
2022-11-14T13:55:01.560Z,24.20
2022-11-14T13:58:06.949Z,19.80
2022-11-14T14:00:59.535Z,22.50
2022-11-14T14:04:01.527Z,20.70
2022-11-14T14:07:26.276Z,22.00
2022-11-14T14:10:47.755Z,25.48
2022-11-14T14:14:04.682Z,22.25
2022-11-14T14:16:58.680Z,18.10
2022-11-14T14:19:51.670Z,19.00
2022-11-14T14:22:52.944Z,20.98
2022-11-14T14:25:58.712Z,19.70
2022-11-14T14:28:50.347Z,23.70
2022-11-14T14:31:40.426Z,24.02
2022-11-14T14:34:30.205Z,21.02
2022-11-14T14:37:26.116Z,17.52
2022-11-14T14:43:12.641Z,24.63
2022-11-14T14:45:58.707Z,26.55
2022-11-14T14:48:44.632Z,26.30
2022-11-14T14:51:34.987Z,24.65
2022-11-14T14:54:25.446Z,28.65
2022-11-14T14:57:17.141Z,26.33
2022-11-14T15:00:08.325Z,40.70
2022-11-14T15:02:54.585Z,40.60
2022-11-14T15:08:25.911Z,44.08
2022-11-14T15:11:12.472Z,40.95
2022-11-14T15:13:58.557Z,34.70
2022-11-14T15:16:45.204Z,35.35
2022-11-14T15:19:37.701Z,34.45
2022-11-14T15:22:25.066Z,39.28
2022-11-14T15:25:10.683Z,32.47
2022-11-14T15:28:00.209Z,30.25
2022-11-14T15:30:59.544Z,28.05
2022-11-14T15:33:45.311Z,26.98
2022-11-14T15:36:30.977Z,32.42
2022-11-14T15:39:27.553Z,28.50
2022-11-14T15:42:28.317Z,27.60
2022-11-14T15:45:27.915Z,22.80
2022-11-14T15:48:15.720Z,29.80
2022-11-14T15:51:01.446Z,30.25
2022-11-14T15:53:49.145Z,28.73
2022-11-14T15:56:35.252Z,25.48
2022-11-14T15:59:21.215Z,31.00
2022-11-14T16:02:13.040Z,32.53
2022-11-14T16:04:59.150Z,32.28
2022-11-14T16:07:44.894Z,37.15
2022-11-14T16:10:30.697Z,36.35
2022-11-14T16:13:16.392Z,39.67
2022-11-14T16:16:02.188Z,40.17
2022-11-14T16:18:47.841Z,41.33
2022-11-14T16:21:33.572Z,49.10
2022-11-14T16:24:21.671Z,42.78
2022-11-14T16:27:07.445Z,43.15
2022-11-14T16:29:53.667Z,56.58
2022-11-14T16:32:40.326Z,77.90
2022-11-14T16:35:26.439Z,77.35
2022-11-14T16:38:12.774Z,69.35
2022-11-14T16:41:00.380Z,65.45
2022-11-14T16:43:46.399Z,59.25
2022-11-14T16:46:32.216Z,50.65
2022-11-14T16:49:19.567Z,54.20
2022-11-14T16:52:08.559Z,62.10
2022-11-14T16:54:54.499Z,77.18
2022-11-14T16:57:40.401Z,60.75
2022-11-14T17:00:26.080Z,61.60
2022-11-14T17:03:11.985Z,53.65
2022-11-14T17:05:57.922Z,60.83
2022-11-14T17:08:43.605Z,62.97
2022-11-14T17:11:29.410Z,63.97
2022-11-14T17:14:15.315Z,53.60
2022-11-14T17:17:03.946Z,59.40
2022-11-14T17:19:50.027Z,56.83
2022-11-14T17:22:35.815Z,57.80
2022-11-14T17:25:21.501Z,52.10
2022-11-14T17:28:07.387Z,45.50
2022-11-14T17:30:53.045Z,56.25
2022-11-14T17:33:38.668Z,48.25
2022-11-14T17:36:26.153Z,36.13
2022-11-14T17:39:12.011Z,50.12
2022-11-14T17:41:57.660Z,51.20
2022-11-14T17:44:43.398Z,54.08
2022-11-14T17:47:29.192Z,55.35
2022-11-14T17:50:15.257Z,48.65
2022-11-14T17:53:01.133Z,49.10
2022-11-14T17:55:46.896Z,48.53
2022-11-14T17:58:33.209Z,54.05
2022-11-14T18:01:21.200Z,51.00
2022-11-14T18:04:07.283Z,55.67
2022-11-14T18:06:53.309Z,60.88
2022-11-14T18:12:25.080Z,56.42
2022-11-14T18:15:10.872Z,61.05
2022-11-14T18:17:56.465Z,65.75
2022-11-14T18:20:42.161Z,51.47
2022-11-14T18:23:27.875Z,70.82
2022-11-14T18:26:15.576Z,64.28
2022-11-14T18:29:02.327Z,66.10
2022-11-14T18:31:48.481Z,60.10
2022-11-14T18:37:23.242Z,64.93
2022-11-14T18:40:16.150Z,72.60
2022-11-14T18:43:02.712Z,70.12
2022-11-14T18:45:48.398Z,68.00
2022-11-14T18:48:37.840Z,72.85
2022-11-14T18:51:26.519Z,68.10
2022-11-14T18:54:13.460Z,65.87
2022-11-14T18:57:00.192Z,60.47
2022-11-14T18:59:45.828Z,54.65
2022-11-14T19:02:31.590Z,54.38
2022-11-14T19:05:17.752Z,45.40
2022-11-14T19:08:05.257Z,43.00
2022-11-14T19:10:51.118Z,50.85
2022-11-14T19:13:36.947Z,47.85
2022-11-14T19:16:23.021Z,47.90
2022-11-14T19:19:09.050Z,49.35
2022-11-14T19:21:55.185Z,44.38
2022-11-14T19:24:43.085Z,46.92
2022-11-14T19:27:28.738Z,39.28
2022-11-14T19:30:16.490Z,46.90
2022-11-14T19:33:03.344Z,44.22
2022-11-14T19:35:48.952Z,45.60
2022-11-14T19:38:34.720Z,48.25
2022-11-14T19:41:20.757Z,46.85
2022-11-14T19:46:52.486Z,42.83
2022-11-14T19:49:38.256Z,43.70
2022-11-14T19:52:23.949Z,41.30
2022-11-14T19:55:09.675Z,45.70
2022-11-14T19:57:55.422Z,42.00
2022-11-14T20:00:41.237Z,42.65
2022-11-14T20:03:27.086Z,44.28
2022-11-14T20:06:21.753Z,45.72
2022-11-14T20:09:08.895Z,48.08
2022-11-14T20:11:54.655Z,46.37
2022-11-14T20:14:40.230Z,51.60
2022-11-14T20:17:25.961Z,45.35
2022-11-14T20:20:11.581Z,56.53
2022-11-14T20:22:57.229Z,63.05
2022-11-14T20:25:43.242Z,62.88
2022-11-14T20:28:28.964Z,74.10
2022-11-14T20:31:16.345Z,60.45
2022-11-14T20:34:01.994Z,62.15
2022-11-14T20:37:09.773Z,65.22
2022-11-14T20:39:53.328Z,58.75
2022-11-14T20:42:39.022Z,58.87
2022-11-14T20:45:24.959Z,67.07
2022-11-14T20:48:10.544Z,69.82
2022-11-14T20:51:12.878Z,68.60
2022-11-14T20:53:58.604Z,73.43
2022-11-14T20:56:44.679Z,65.28
2022-11-14T20:59:30.723Z,68.75
2022-11-14T21:02:16.442Z,62.75
2022-11-14T21:05:02.647Z,70.07
2022-11-14T21:07:48.236Z,54.88
2022-11-14T21:10:45.777Z,57.92
2022-11-14T21:13:50.366Z,51.22
2022-11-14T21:16:38.628Z,58.23
2022-11-14T21:19:25.323Z,50.83
2022-11-14T21:24:56.787Z,54.95
2022-11-14T21:27:42.674Z,51.25
2022-11-14T21:30:31.038Z,54.75
2022-11-14T21:33:16.891Z,61.67
2022-11-14T21:36:29.678Z,73.87
2022-11-14T21:39:15.036Z,56.53
2022-11-14T21:42:01.465Z,59.08
2022-11-14T21:44:47.006Z,78.07
2022-11-14T21:47:33.717Z,75.70
2022-11-14T21:50:19.611Z,67.13
2022-11-14T21:53:15.891Z,83.03
2022-11-14T21:56:15.578Z,67.20
2022-11-14T21:59:14.238Z,72.27
2022-11-14T22:02:19.163Z,79.50
2022-11-14T22:05:05.164Z,72.90
2022-11-14T22:07:51.015Z,81.50
2022-11-14T22:10:36.761Z,75.12
2022-11-14T22:13:22.453Z,77.35
2022-11-14T22:16:08.722Z,74.25
2022-11-14T22:18:54.618Z,78.53
2022-11-14T22:21:40.464Z,80.35
2022-11-14T22:24:26.501Z,76.82
2022-11-14T22:27:12.208Z,79.97
2022-11-14T22:29:58.074Z,79.55
2022-11-14T22:32:43.747Z,79.22
2022-11-14T22:35:29.456Z,66.50
2022-11-14T22:41:01.633Z,78.07
2022-11-14T22:43:47.751Z,91.70
2022-11-14T22:46:33.529Z,71.35
2022-11-14T22:49:21.243Z,152.35
2022-11-14T22:52:07.392Z,84.87
2022-11-14T22:54:53.135Z,147.57
2022-11-14T22:57:38.651Z,150.25
2022-11-14T23:00:25.437Z,149.25
2022-11-14T23:03:13.034Z,182.52
2022-11-14T23:06:06.683Z,308.52
2022-11-14T23:08:52.730Z,234.62
2022-11-14T23:11:38.815Z,109.20
2022-11-14T23:14:24.531Z,169.45
2022-11-14T23:17:10.112Z,219.60
2022-11-14T23:19:56.417Z,218.43
2022-11-14T23:22:41.962Z,214.68
2022-11-14T23:25:27.733Z,146.73
2022-11-14T23:28:13.450Z,205.70
2022-11-14T23:30:59.413Z,116.00
2022-11-14T23:33:52.614Z,160.40
2022-11-14T23:36:38.454Z,153.68
2022-11-14T23:39:24.208Z,86.10
2022-11-14T23:42:09.911Z,74.47
2022-11-14T23:44:55.897Z,111.37
2022-11-14T23:47:41.573Z,64.65
2022-11-14T23:50:27.307Z,170.90
2022-11-14T23:53:13.324Z,163.05
2022-11-14T23:56:00.041Z,101.20
2022-11-14T23:58:45.814Z,168.07
